Time;durP1;ratioP1;P1;durP2;ratioP2;P2;SDS_P1;SDS_P2;PMS_P1;PMS_P2;Temp;Humidity;BMP_temperature;BMP_pressure;BME280_temperature;BME280_humidity;BME280_pressure;Samples;Min_cycle;Max_cycle;Signal;HPM_P1;HPM_P2
2021/05/17 00:02:12;;;;;;;3.20;0.93;;;11.00;99.90;;;;;;5052375;28;20472;-64
2021/05/17 00:04:39;;;;;;;2.23;1.03;;;11.00;99.90;;;;;;5052506;28;20945;-64
2021/05/17 00:07:09;;;;;;;2.10;1.07;;;11.00;99.90;;;;;;5052023;28;20472;-64
2021/05/17 00:09:36;;;;;;;2.27;0.97;;;11.00;99.90;;;;;;5052532;28;20454;-64
2021/05/17 00:12:04;;;;;;;2.73;1.00;;;11.00;99.90;;;;;;5052368;28;20986;-64
2021/05/17 00:14:31;;;;;;;4.13;1.23;;;11.10;99.90;;;;;;5052219;28;20439;-65
2021/05/17 00:16:58;;;;;;;1.87;0.80;;;11.00;99.90;;;;;;5052009;28;20898;-64
2021/05/17 00:19:25;;;;;;;2.70;0.90;;;11.00;99.90;;;;;;5052021;28;20486;-64
2021/05/17 00:21:52;;;;;;;4.27;1.00;;;11.00;99.90;;;;;;5052031;28;20475;-64
2021/05/17 00:24:19;;;;;;;1.70;0.70;;;11.00;99.90;;;;;;5052122;28;20432;-64
2021/05/17 00:26:47;;;;;;;2.03;0.80;;;10.90;99.90;;;;;;5051925;28;20478;-64
2021/05/17 00:29:15;;;;;;;3.00;0.80;;;10.90;99.90;;;;;;5052045;28;20539;-64
2021/05/17 00:31:44;;;;;;;6.00;1.80;;;11.00;99.90;;;;;;5052142;28;20448;-64
2021/05/17 00:34:11;;;;;;;1.97;0.70;;;10.90;99.90;;;;;;5051805;28;20555;-66
2021/05/17 00:36:38;;;;;;;2.07;0.93;;;10.90;99.90;;;;;;5051533;28;20547;-64
2021/05/17 00:39:06;;;;;;;2.80;0.80;;;11.00;99.90;;;;;;5051837;28;20539;-64
2021/05/17 00:41:33;;;;;;;2.23;1.10;;;11.00;99.90;;;;;;5051742;28;20819;-64
2021/05/17 00:44:00;;;;;;;2.47;1.03;;;11.00;99.90;;;;;;5051255;28;20433;-64
2021/05/17 00:46:30;;;;;;;2.53;1.07;;;11.00;99.90;;;;;;5051744;28;20448;-64
2021/05/17 00:48:56;;;;;;;2.67;0.97;;;11.00;99.90;;;;;;5051360;28;20441;-65
2021/05/17 00:51:23;;;;;;;2.40;0.90;;;10.90;99.90;;;;;;5052104;28;20450;-64
2021/05/17 00:53:49;;;;;;;2.10;1.00;;;11.00;99.90;;;;;;5051687;28;20448;-64
2021/05/17 00:56:16;;;;;;;3.30;1.57;;;11.00;99.90;;;;;;5051300;28;20444;-64
2021/05/17 00:58:43;;;;;;;3.67;1.27;;;11.00;99.90;;;;;;5051236;28;20454;-64
2021/05/17 01:01:09;;;;;;;1.93;0.93;;;10.90;99.90;;;;;;5051426;28;20448;-64
2021/05/17 01:03:36;;;;;;;2.30;1.03;;;10.90;99.90;;;;;;5051175;28;20479;-64
2021/05/17 01:06:04;;;;;;;3.47;1.10;;;10.80;99.90;;;;;;5051563;28;20452;-64
2021/05/17 01:08:36;;;;;;;3.10;1.13;;;10.90;99.90;;;;;;5050974;28;20559;-64
2021/05/17 01:11:05;;;;;;;1.97;1.17;;;10.90;99.90;;;;;;5051320;28;20454;-64
2021/05/17 01:13:32;;;;;;;3.30;0.90;;;10.80;99.90;;;;;;5051179;28;20490;-64
2021/05/17 01:16:00;;;;;;;3.00;2.07;;;10.90;99.90;;;;;;5051353;28;20207;-64
2021/05/17 01:18:27;;;;;;;2.47;1.27;;;10.80;99.90;;;;;;5051161;28;20483;-63
2021/05/17 01:20:56;;;;;;;2.57;0.80;;;10.80;99.90;;;;;;5051461;28;20538;-64
2021/05/17 01:23:44;;;;;;;4.33;1.00;;;10.70;99.90;;;;;;5051311;28;20487;-64
2021/05/17 01:26:11;;;;;;;3.90;0.80;;;10.70;99.90;;;;;;5051143;28;20468;-64
2021/05/17 01:28:39;;;;;;;2.20;0.93;;;10.60;99.90;;;;;;5051221;28;20507;-64
2021/05/17 01:31:08;;;;;;;2.43;1.03;;;10.50;99.90;;;;;;5051098;28;20443;-63
2021/05/17 01:33:36;;;;;;;3.00;1.30;;;10.50;99.90;;;;;;5050921;28;20455;-63
2021/05/17 01:36:05;;;;;;;2.30;1.03;;;10.50;99.90;;;;;;5051090;28;20535;-64
2021/05/17 01:38:34;;;;;;;3.33;1.00;;;10.50;99.90;;;;;;5050638;28;20996;-63
2021/05/17 01:41:03;;;;;;;2.60;0.93;;;10.50;99.90;;;;;;5050831;28;20455;-64
2021/05/17 01:43:33;;;;;;;5.57;1.17;;;10.50;99.90;;;;;;5051144;28;20997;-63
2021/05/17 01:46:01;;;;;;;2.17;0.83;;;10.40;99.90;;;;;;5051051;28;20448;-64
2021/05/17 01:48:29;;;;;;;2.73;1.03;;;10.30;99.90;;;;;;5050510;28;20490;-64
2021/05/17 01:50:56;;;;;;;4.00;0.90;;;10.30;99.90;;;;;;5050608;28;20953;-64
2021/05/17 01:53:23;;;;;;;2.20;0.97;;;10.20;99.90;;;;;;5050465;28;20447;-65
2021/05/17 01:55:51;;;;;;;2.40;1.03;;;10.20;99.90;;;;;;5049783;28;20455;-64
2021/05/17 01:58:23;;;;;;;2.80;0.83;;;10.10;99.90;;;;;;5050238;28;21031;-63
2021/05/17 02:00:50;;;;;;;1.87;0.70;;;10.10;99.90;;;;;;5050708;28;20450;-64
2021/05/17 02:03:17;;;;;;;2.77;1.00;;;10.10;99.90;;;;;;5050496;28;20492;-64
2021/05/17 02:05:46;;;;;;;2.57;0.90;;;10.20;99.90;;;;;;5050684;28;21152;-67
2021/05/17 02:08:13;;;;;;;1.57;0.87;;;10.30;99.90;;;;;;5050612;28;20466;-64
2021/05/17 02:10:40;;;;;;;3.80;0.97;;;10.30;99.90;;;;;;5050501;28;21043;-64
2021/05/17 02:13:13;;;;;;;4.10;2.27;;;10.40;99.90;;;;;;5050277;28;20548;-64
2021/05/17 02:15:43;;;;;;;3.27;1.00;;;10.40;99.90;;;;;;5050470;28;20448;-64
2021/05/17 02:18:10;;;;;;;2.20;0.87;;;10.50;99.90;;;;;;5049776;28;20579;-63
2021/05/17 02:20:40;;;;;;;2.53;1.13;;;10.50;99.90;;;;;;5050698;28;20537;-64
2021/05/17 02:23:09;;;;;;;4.57;1.10;;;10.40;99.90;;;;;;5050446;28;20867;-63
2021/05/17 02:25:40;;;;;;;1.50;0.70;;;10.40;99.90;;;;;;5050375;28;20546;-63
2021/05/17 02:28:07;;;;;;;2.97;0.60;;;10.50;99.90;;;;;;5050012;28;20463;-64
2021/05/17 02:30:35;;;;;;;3.27;0.83;;;10.50;99.90;;;;;;5050458;28;20498;-64
2021/05/17 02:33:02;;;;;;;1.80;0.80;;;10.60;99.90;;;;;;5050224;28;20440;-64
2021/05/17 02:35:28;;;;;;;2.67;0.77;;;10.60;99.90;;;;;;5050267;28;20531;-64
2021/05/17 02:37:55;;;;;;;2.23;0.90;;;10.60;99.90;;;;;;5050081;28;20460;-63
2021/05/17 02:40:22;;;;;;;2.27;1.03;;;10.60;99.90;;;;;;5050281;28;20462;-66
2021/05/17 02:42:50;;;;;;;2.33;0.77;;;10.60;99.90;;;;;;5050040;28;20478;-64
2021/05/17 02:45:19;;;;;;;2.17;0.67;;;10.70;99.90;;;;;;5050170;28;20436;-63
2021/05/17 02:47:46;;;;;;;2.00;0.80;;;10.70;99.90;;;;;;5049833;28;20903;-63
2021/05/17 02:50:16;;;;;;;2.13;0.60;;;10.70;99.90;;;;;;5050251;28;20585;-64
2021/05/17 02:52:44;;;;;;;2.63;0.80;;;10.70;99.90;;;;;;5050106;28;20451;-64
2021/05/17 02:55:12;;;;;;;2.50;0.80;;;10.70;99.90;;;;;;5050404;28;20444;-64
2021/05/17 02:57:44;;;;;;;3.30;1.07;;;10.70;99.90;;;;;;5049912;28;20464;-64
2021/05/17 03:00:13;;;;;;;2.17;1.07;;;10.70;99.90;;;;;;5050270;28;20890;-64
2021/05/17 03:02:59;;;;;;;5.00;0.90;;;10.70;99.90;;;;;;5050335;28;20484;-64
2021/05/17 03:05:27;;;;;;;2.43;0.93;;;10.70;99.90;;;;;;5049524;28;20462;-64
2021/05/17 03:07:59;;;;;;;3.03;0.93;;;10.60;99.90;;;;;;5052217;28;20472;-65
2021/05/17 03:10:27;;;;;;;2.23;0.80;;;10.60;99.90;;;;;;5053904;28;20543;-64
2021/05/17 03:12:55;;;;;;;1.50;0.60;;;10.60;99.90;;;;;;5054122;28;20436;-64
2021/05/17 03:15:25;;;;;;;4.33;0.70;;;10.60;99.90;;;;;;5053980;28;20526;-64
2021/05/17 03:17:53;;;;;;;2.13;0.73;;;10.60;99.90;;;;;;5053450;28;20581;-64
2021/05/17 03:20:21;;;;;;;2.67;0.80;;;10.60;99.90;;;;;;5053979;28;20444;-64
2021/05/17 03:22:49;;;;;;;2.17;0.80;;;10.60;99.90;;;;;;5053644;28;21018;-64
2021/05/17 03:25:17;;;;;;;5.40;0.90;;;10.60;99.90;;;;;;5053922;28;20458;-65
2021/05/17 03:27:44;;;;;;;1.93;0.80;;;10.60;99.90;;;;;;5053412;28;20468;-65
2021/05/17 03:30:12;;;;;;;4.80;0.90;;;10.70;99.90;;;;;;5053823;28;20447;-65
2021/05/17 03:32:38;;;;;;;2.20;0.73;;;10.70;99.90;;;;;;5053771;28;20888;-65
2021/05/17 03:35:05;;;;;;;1.70;0.50;;;10.70;99.90;;;;;;5053713;28;20539;-64
2021/05/17 03:37:33;;;;;;;3.60;0.70;;;10.60;99.90;;;;;;5053036;28;20490;-64
2021/05/17 03:39:59;;;;;;;2.33;0.70;;;10.60;99.90;;;;;;5053560;28;20450;-64
2021/05/17 03:42:25;;;;;;;1.93;0.70;;;10.60;99.90;;;;;;5053410;28;20574;-64
2021/05/17 03:44:52;;;;;;;2.60;1.07;;;10.60;99.90;;;;;;5053389;28;20447;-64
2021/05/17 03:47:18;;;;;;;2.17;0.80;;;10.60;99.90;;;;;;5053420;28;20470;-64
2021/05/17 03:49:44;;;;;;;1.70;0.77;;;10.60;99.90;;;;;;5053373;28;20454;-64
2021/05/17 03:52:11;;;;;;;1.80;0.80;;;10.60;99.90;;;;;;5053344;28;20828;-64
2021/05/17 03:54:38;;;;;;;2.30;0.70;;;10.60;99.90;;;;;;5053311;28;20747;-64
2021/05/17 03:57:05;;;;;;;1.90;1.07;;;10.60;99.90;;;;;;5053323;28;20912;-64
2021/05/17 03:59:32;;;;;;;1.63;0.80;;;10.70;99.90;;;;;;5054308;28;20446;-64
2021/05/17 04:01:58;;;;;;;2.73;0.70;;;10.70;99.90;;;;;;5053955;28;20451;-65
2021/05/17 04:04:27;;;;;;;1.80;0.80;;;10.70;99.90;;;;;;5053842;28;21186;-65
2021/05/17 04:06:58;;;;;;;1.93;0.70;;;10.70;99.90;;;;;;5053677;28;20476;-64
2021/05/17 04:14:54;;;;;;;3.40;0.90;;;10.80;99.90;;;;;;5052561;28;20498;-64
2021/05/17 04:17:21;;;;;;;1.97;0.90;;;10.90;99.90;;;;;;5052136;28;20467;-64
2021/05/17 04:19:47;;;;;;;2.10;0.87;;;10.90;99.90;;;;;;5051131;28;20455;-64
2021/05/17 04:22:13;;;;;;;2.17;0.77;;;10.90;99.90;;;;;;5052076;28;20472;-65
2021/05/17 04:24:40;;;;;;;2.37;0.70;;;10.90;99.90;;;;;;5051417;28;20540;-64
2021/05/17 04:27:06;;;;;;;3.20;1.10;;;10.90;99.90;;;;;;5052199;28;20544;-64
2021/05/17 04:29:33;;;;;;;1.60;0.70;;;10.90;99.90;;;;;;5052030;28;20446;-65
2021/05/17 04:32:00;;;;;;;1.57;0.70;;;10.90;99.90;;;;;;5052127;28;20448;-65
2021/05/17 04:34:27;;;;;;;1.60;0.70;;;10.90;99.90;;;;;;5051955;28;20448;-64
2021/05/17 04:36:53;;;;;;;1.80;0.70;;;10.90;99.90;;;;;;5051815;28;20464;-64
2021/05/17 04:39:20;;;;;;;1.60;0.83;;;10.90;99.90;;;;;;5051856;28;20953;-65
2021/05/17 04:41:46;;;;;;;1.50;0.60;;;11.00;99.90;;;;;;5052302;28;20447;-64
2021/05/17 04:44:12;;;;;;;3.10;0.70;;;11.00;99.90;;;;;;5052155;28;20480;-67
2021/05/17 04:46:40;;;;;;;2.80;0.60;;;11.00;99.90;;;;;;5051792;28;21067;-65
2021/05/17 04:49:06;;;;;;;2.23;0.70;;;11.00;99.90;;;;;;5051806;28;20455;-64
2021/05/17 04:51:32;;;;;;;2.00;0.80;;;11.00;99.90;;;;;;5053403;28;20534;-65
2021/05/17 04:53:59;;;;;;;2.83;1.03;;;11.00;99.90;;;;;;5051774;28;20586;-66
2021/05/17 04:56:25;;;;;;;2.13;0.80;;;11.00;99.90;;;;;;5051758;28;20509;-63
2021/05/17 04:58:51;;;;;;;2.30;0.70;;;11.00;99.90;;;;;;5051467;28;20594;-63
2021/05/17 05:01:17;;;;;;;3.10;0.63;;;11.10;99.90;;;;;;5051631;28;20886;-64
2021/05/17 05:03:45;;;;;;;2.90;0.97;;;11.10;99.90;;;;;;5051360;28;20861;-64
2021/05/17 05:06:11;;;;;;;2.47;0.70;;;11.10;99.90;;;;;;5051168;28;21073;-64
2021/05/17 05:08:37;;;;;;;1.87;0.60;;;11.10;99.90;;;;;;5051292;28;20506;-65
2021/05/17 05:11:04;;;;;;;1.67;0.60;;;11.00;99.90;;;;;;5049273;28;20448;-65
2021/05/17 05:13:30;;;;;;;2.60;0.80;;;11.00;99.90;;;;;;5050012;28;20440;-62
2021/05/17 05:15:57;;;;;;;1.30;0.50;;;11.10;99.90;;;;;;5050045;28;20530;-63
2021/05/17 05:18:24;;;;;;;4.10;0.80;;;11.10;99.90;;;;;;5049808;28;20569;-63
2021/05/17 05:20:51;;;;;;;2.13;0.73;;;11.10;99.90;;;;;;5049529;28;20535;-63
2021/05/17 05:23:21;;;;;;;2.00;0.70;;;11.10;99.90;;;;;;5045697;28;21108;-63
2021/05/17 05:28:41;;;;;;;2.30;0.87;;;11.00;99.90;;;;;;5048172;28;20567;-63
2021/05/17 05:31:14;;;;;;;3.50;0.87;;;11.00;99.90;;;;;;5046483;28;20483;-63
2021/05/17 05:33:41;;;;;;;2.07;0.63;;;11.20;99.90;;;;;;5046635;28;20444;-63
2021/05/17 05:36:08;;;;;;;1.40;0.50;;;11.50;99.90;;;;;;5040052;28;20444;-64
2021/05/17 05:38:35;;;;;;;2.03;0.80;;;11.70;99.90;;;;;;5048288;28;20460;-63
2021/05/17 05:41:01;;;;;;;1.40;0.60;;;11.70;99.90;;;;;;5044045;28;20449;-63
2021/05/17 05:43:27;;;;;;;4.13;0.70;;;11.70;99.90;;;;;;5036599;28;20483;-63
2021/05/17 05:45:54;;;;;;;2.23;0.80;;;11.70;99.90;;;;;;5028565;28;20445;-63
2021/05/17 05:48:21;;;;;;;2.17;0.60;;;11.70;99.90;;;;;;5031728;28;20877;-63
2021/05/17 05:50:47;;;;;;;1.60;0.60;;;11.70;99.90;;;;;;5048326;28;20472;-63
2021/05/17 05:53:15;;;;;;;3.27;0.60;;;11.80;99.90;;;;;;5047567;28;20479;-71
2021/05/17 05:55:41;;;;;;;2.53;0.50;;;11.90;99.90;;;;;;5046931;28;20448;-63
2021/05/17 05:58:07;;;;;;;1.93;0.67;;;12.00;99.90;;;;;;5047336;28;20471;-64
2021/05/17 06:00:34;;;;;;;1.50;0.80;;;12.10;99.90;;;;;;5047278;28;20829;-62
2021/05/17 06:03:01;;;;;;;1.67;0.60;;;12.30;99.90;;;;;;5047226;28;20480;-63
2021/05/17 06:05:28;;;;;;;1.53;0.60;;;12.50;99.90;;;;;;5047518;28;20974;-63
2021/05/17 06:07:56;;;;;;;1.40;0.60;;;12.70;99.90;;;;;;5038822;28;20469;-63
2021/05/17 06:10:24;;;;;;;2.03;0.50;;;12.70;99.90;;;;;;5038905;28;20451;-64
2021/05/17 06:12:51;;;;;;;2.43;0.80;;;12.50;99.90;;;;;;5043659;28;20543;-62
2021/05/17 06:15:20;;;;;;;2.50;0.60;;;12.40;99.90;;;;;;5043910;28;20839;-63
2021/05/17 06:17:47;;;;;;;1.43;0.63;;;12.30;99.90;;;;;;5034226;28;20964;-63
2021/05/17 06:20:15;;;;;;;2.57;0.70;;;12.20;99.90;;;;;;5025718;28;20548;-62
2021/05/17 06:22:42;;;;;;;3.77;0.80;;;12.10;99.90;;;;;;5025672;28;20837;-62
2021/05/17 06:25:11;;;;;;;1.43;0.60;;;12.00;99.90;;;;;;5033617;28;20445;-62
2021/05/17 06:27:39;;;;;;;1.67;0.60;;;12.10;99.90;;;;;;5024973;28;20563;-62
2021/05/17 06:30:09;;;;;;;6.07;0.77;;;12.10;99.90;;;;;;5025578;28;21012;-62
2021/05/17 06:32:36;;;;;;;1.80;0.70;;;12.10;99.90;;;;;;5025277;28;20456;-62
2021/05/17 06:35:04;;;;;;;1.67;0.70;;;12.20;99.90;;;;;;5025033;28;20496;-62
2021/05/17 06:37:31;;;;;;;3.70;0.80;;;12.20;99.90;;;;;;5025407;28;20504;-62
2021/05/17 06:39:57;;;;;;;2.50;0.70;;;12.20;99.90;;;;;;5025326;28;20495;-62
2021/05/17 06:42:24;;;;;;;4.00;0.90;;;12.20;99.90;;;;;;5024714;28;20910;-62
2021/05/17 06:44:52;;;;;;;1.47;0.67;;;12.10;99.90;;;;;;5032366;28;20486;-62
2021/05/17 06:47:19;;;;;;;1.90;0.80;;;12.10;99.90;;;;;;5045061;28;20460;-62
2021/05/17 06:49:46;;;;;;;1.80;0.70;;;12.10;99.90;;;;;;5045303;28;20531;-63
2021/05/17 06:52:15;;;;;;;2.00;0.73;;;12.20;99.90;;;;;;5045183;28;20444;-63
2021/05/17 06:54:43;;;;;;;2.27;0.50;;;12.30;99.90;;;;;;5044934;28;20539;-63
2021/05/17 06:57:16;;;;;;;1.70;0.50;;;12.50;99.90;;;;;;5045018;28;20529;-64
2021/05/17 06:59:44;;;;;;;2.30;0.80;;;12.70;99.90;;;;;;5045105;28;20452;-63
2021/05/17 07:02:18;;;;;;;1.60;0.70;;;12.80;99.90;;;;;;5044703;28;20448;-62
2021/05/17 07:04:45;;;;;;;2.23;0.70;;;13.00;99.90;;;;;;5045574;28;20459;-62
2021/05/17 07:07:15;;;;;;;2.57;1.07;;;13.10;99.90;;;;;;5044923;28;20533;-62
2021/05/17 07:12:26;;;;;;;2.60;0.50;;;12.80;99.90;;;;;;5044888;28;20427;-62
2021/05/17 07:14:52;;;;;;;2.73;0.80;;;12.80;99.90;;;;;;5045066;28;20535;-62
2021/05/17 07:17:20;;;;;;;1.40;0.50;;;12.70;99.90;;;;;;5045023;28;20515;-61
2021/05/17 07:19:46;;;;;;;2.57;0.50;;;12.60;99.90;;;;;;5044751;28;21035;-62
2021/05/17 07:24:58;;;;;;;3.30;0.50;;;12.50;99.90;;;;;;5044838;28;20507;-62
2021/05/17 07:27:24;;;;;;;1.63;0.50;;;12.50;99.90;;;;;;5044513;28;20456;-62
2021/05/17 07:29:51;;;;;;;1.63;0.80;;;12.60;99.90;;;;;;5045241;28;20448;-62
2021/05/17 07:32:18;;;;;;;3.00;0.80;;;12.80;99.90;;;;;;5045300;28;20448;-62
2021/05/17 07:34:45;;;;;;;1.97;0.60;;;13.00;99.90;;;;;;5045155;28;20444;-62
2021/05/17 07:37:11;;;;;;;1.70;0.73;;;13.00;99.90;;;;;;5045416;28;20587;-62
2021/05/17 07:39:37;;;;;;;1.63;0.63;;;13.30;99.90;;;;;;5045010;28;20945;-63
2021/05/17 07:42:05;;;;;;;1.90;0.73;;;13.50;99.90;;;;;;5045262;28;20509;-62
2021/05/17 07:44:32;;;;;;;2.23;0.70;;;13.60;99.90;;;;;;5045277;28;20574;-62
2021/05/17 07:46:58;;;;;;;1.43;0.50;;;13.80;99.90;;;;;;5044743;28;20468;-62
2021/05/17 07:49:34;;;;;;;4.03;1.70;;;13.90;99.90;;;;;;5044904;28;20447;-62
2021/05/17 07:52:01;;;;;;;3.40;0.77;;;13.70;99.90;;;;;;5044736;28;20483;-62
2021/05/17 07:54:27;;;;;;;2.33;0.83;;;13.50;99.90;;;;;;5046412;28;20455;-62
2021/05/17 07:56:54;;;;;;;3.80;0.80;;;13.60;99.90;;;;;;5048236;28;20467;-63
2021/05/17 07:59:20;;;;;;;2.63;0.73;;;14.00;99.90;;;;;;5048483;28;20513;-63
2021/05/17 08:01:47;;;;;;;3.37;0.87;;;14.50;99.90;;;;;;5048592;28;20444;-62
2021/05/17 08:04:15;;;;;;;6.50;0.90;;;14.60;99.90;;;;;;5048358;28;20534;-63
2021/05/17 08:06:42;;;;;;;3.00;1.00;;;14.70;99.90;;;;;;5048067;28;21098;-62
2021/05/17 08:09:09;;;;;;;2.57;0.90;;;14.40;99.90;;;;;;5048533;28;20529;-63
2021/05/17 08:11:35;;;;;;;2.03;0.70;;;14.00;99.90;;;;;;5048795;28;20455;-62
2021/05/17 08:14:02;;;;;;;3.13;0.80;;;13.60;99.90;;;;;;5048280;28;20706;-62
2021/05/17 08:16:31;;;;;;;2.20;0.80;;;13.60;99.90;;;;;;5048142;28;20534;-62
2021/05/17 08:18:58;;;;;;;2.70;1.00;;;13.60;99.90;;;;;;5048124;28;20547;-62
2021/05/17 08:21:24;;;;;;;2.17;1.00;;;13.70;99.90;;;;;;5047893;28;20972;-64
2021/05/17 08:23:54;;;;;;;2.30;1.03;;;13.80;99.90;;;;;;5048200;28;21032;-64
2021/05/17 08:26:20;;;;;;;2.10;0.97;;;13.90;99.90;;;;;;5045864;28;20460;-62
2021/05/17 08:28:47;;;;;;;1.47;0.60;;;13.80;99.90;;;;;;5037343;28;20460;-64
2021/05/17 08:31:15;;;;;;;1.80;0.60;;;13.80;99.90;;;;;;5036949;28;20453;-63
2021/05/17 08:33:43;;;;;;;2.00;0.70;;;14.00;99.90;;;;;;5040770;28;20511;-63
2021/05/17 08:36:10;;;;;;;11.60;3.50;;;14.20;99.90;;;;;;5035521;28;20445;-63
2021/05/17 08:38:37;;;;;;;9.50;3.10;;;14.30;99.90;;;;;;5034195;28;20578;-63
2021/05/17 08:41:05;;;;;;;5.53;2.30;;;14.10;99.90;;;;;;5048159;28;20448;-62
2021/05/17 08:43:31;;;;;;;2.97;1.10;;;14.30;99.90;;;;;;5041632;28;20473;-63
2021/05/17 08:45:58;;;;;;;4.90;1.30;;;14.40;99.90;;;;;;5043712;28;20472;-62
2021/05/17 08:48:24;;;;;;;3.57;0.80;;;14.50;99.90;;;;;;5042083;28;20551;-62
2021/05/17 08:50:51;;;;;;;5.37;0.80;;;14.40;99.90;;;;;;5046746;28;20538;-63
2021/05/17 08:53:17;;;;;;;3.70;0.80;;;14.40;99.90;;;;;;5039268;28;20440;-63
2021/05/17 08:55:44;;;;;;;2.57;0.70;;;14.60;99.90;;;;;;5029021;28;20472;-63
2021/05/17 08:58:11;;;;;;;3.50;0.80;;;14.70;99.90;;;;;;5035457;28;20482;-63
2021/05/17 09:00:37;;;;;;;4.07;0.80;;;14.60;99.90;;;;;;5033560;28;20519;-62
2021/05/17 09:03:04;;;;;;;1.90;0.70;;;14.40;99.90;;;;;;5029326;28;21082;-63
2021/05/17 09:05:32;;;;;;;2.47;0.77;;;14.40;99.90;;;;;;5027145;28;20543;-62
2021/05/17 09:08:01;;;;;;;2.13;0.80;;;14.50;99.90;;;;;;5026881;28;20542;-64
2021/05/17 09:10:31;;;;;;;2.70;0.80;;;14.60;99.90;;;;;;5028254;28;20591;-63
2021/05/17 09:13:01;;;;;;;1.40;0.60;;;14.90;99.90;;;;;;5028250;28;20950;-60
2021/05/17 09:15:34;;;;;;;2.57;0.80;;;15.20;99.90;;;;;;5028342;28;21238;-63
2021/05/17 09:18:03;;;;;;;1.93;0.70;;;15.60;99.90;;;;;;5040340;28;21012;-63
2021/05/17 09:20:37;;;;;;;1.93;0.70;;;15.80;99.90;;;;;;5046846;28;20479;-63
2021/05/17 09:23:18;;;;;;;2.00;0.67;;;15.70;99.90;;;;;;5046796;28;20475;-62
2021/05/17 09:26:02;;;;;;;2.40;0.70;;;14.40;99.90;;;;;;5046629;28;20535;-63
2021/05/17 09:28:30;;;;;;;1.80;0.70;;;13.80;99.90;;;;;;5045513;28;20472;-63
2021/05/17 09:31:04;;;;;;;2.30;0.70;;;13.80;99.90;;;;;;5030959;28;20445;-62
2021/05/17 09:33:39;;;;;;;2.27;0.63;;;13.90;99.90;;;;;;5034981;28;20488;-63
2021/05/17 09:36:06;;;;;;;2.50;0.90;;;14.40;99.90;;;;;;5042382;28;20548;-63
2021/05/17 09:38:33;;;;;;;2.17;0.70;;;14.70;99.90;;;;;;5041500;28;20478;-64
2021/05/17 09:41:04;;;;;;;1.53;0.57;;;14.60;99.90;;;;;;5032088;28;20546;-59
2021/05/17 09:43:32;;;;;;;3.53;0.83;;;13.80;99.90;;;;;;5026540;28;20916;-60
2021/05/17 09:46:01;;;;;;;2.70;0.60;;;13.30;99.90;;;;;;5030215;28;20448;-60
2021/05/17 09:48:30;;;;;;;2.23;0.70;;;13.30;99.90;;;;;;5040073;28;20488;-60
2021/05/17 09:51:08;;;;;;;1.80;0.57;;;13.70;99.90;;;;;;5025807;28;20954;-61
2021/05/17 09:53:38;;;;;;;1.73;0.60;;;14.60;99.90;;;;;;5026382;28;20491;-62
2021/05/17 09:56:09;;;;;;;1.30;0.40;;;15.80;99.90;;;;;;5026077;28;20535;-62
2021/05/17 09:58:37;;;;;;;2.00;0.67;;;16.20;99.90;;;;;;5025698;28;20511;-62
2021/05/17 10:01:10;;;;;;;2.43;0.77;;;16.10;99.90;;;;;;5025955;28;20437;-62
2021/05/17 10:03:38;;;;;;;2.83;0.60;;;16.30;99.90;;;;;;5026080;28;20476;-62
2021/05/17 10:06:08;;;;;;;2.60;0.60;;;16.30;99.90;;;;;;5025552;28;20437;-63
2021/05/17 10:08:34;;;;;;;1.50;0.60;;;16.30;99.90;;;;;;5025471;28;20536;-63
2021/05/17 10:11:01;;;;;;;1.77;0.60;;;16.20;99.90;;;;;;5025895;28;20535;-64
2021/05/17 10:13:33;;;;;;;1.93;0.50;;;15.70;99.90;;;;;;5025605;28;20556;-63
2021/05/17 10:16:01;;;;;;;1.60;0.60;;;15.60;99.90;;;;;;5025372;28;20477;-63
2021/05/17 10:18:29;;;;;;;1.57;0.60;;;15.70;99.90;;;;;;5025053;28;21134;-63
2021/05/17 10:20:56;;;;;;;1.40;0.50;;;15.70;99.90;;;;;;5025417;28;20457;-62
2021/05/17 10:23:23;;;;;;;2.00;0.70;;;15.80;99.90;;;;;;5034316;28;20471;-63
2021/05/17 10:25:50;;;;;;;2.50;1.27;;;15.80;99.90;;;;;;5036673;28;20510;-62
2021/05/17 10:28:19;;;;;;;1.70;0.77;;;16.20;99.90;;;;;;5036562;28;20457;-62
2021/05/17 10:30:46;;;;;;;3.17;1.07;;;16.60;99.90;;;;;;5028812;28;20532;-63
2021/05/17 10:33:19;;;;;;;1.90;0.80;;;17.00;99.90;;;;;;5025771;28;20536;-62
2021/05/17 10:35:52;;;;;;;2.23;0.60;;;17.40;99.90;;;;;;5025766;28;20484;-62
2021/05/17 10:38:27;;;;;;;2.10;0.60;;;17.40;99.90;;;;;;5025244;28;20555;-62
2021/05/17 10:41:00;;;;;;;1.60;0.50;;;17.20;99.90;;;;;;5025345;28;20452;-61
2021/05/17 10:43:55;;;;;;;1.67;0.60;;;16.60;99.90;;;;;;5025615;28;20521;-61
2021/05/17 10:46:37;;;;;;;2.87;0.80;;;16.30;99.90;;;;;;5024982;28;20522;-62
2021/05/17 10:49:20;;;;;;;1.80;0.60;;;16.00;99.90;;;;;;5025254;28;20448;-62
2021/05/17 10:51:48;;;;;;;3.30;1.43;;;16.00;99.90;;;;;;5025354;28;20524;-62
2021/05/17 10:54:26;;;;;;;1.50;0.50;;;16.20;99.90;;;;;;5025025;28;20440;-61
2021/05/17 10:56:55;;;;;;;1.93;0.70;;;16.30;99.90;;;;;;5025392;28;20468;-62
2021/05/17 11:02:13;;;;;;;1.70;0.57;;;17.20;99.90;;;;;;5025591;28;20479;-63
2021/05/17 11:04:41;;;;;;;1.80;0.70;;;18.20;99.90;;;;;;5025558;28;20603;-63
2021/05/17 11:07:28;;;;;;;2.53;0.67;;;18.80;99.90;;;;;;5025011;28;20903;-63
2021/05/17 11:10:11;;;;;;;3.80;0.57;;;19.70;98.90;;;;;;5025696;28;21138;-63
2021/05/17 11:12:57;;;;;;;2.00;0.60;;;20.00;99.90;;;;;;5026412;28;21037;-63
2021/05/17 11:15:25;;;;;;;2.30;0.80;;;20.80;98.20;;;;;;5032425;28;20732;-64
2021/05/17 11:18:18;;;;;;;3.40;0.70;;;21.20;96.90;;;;;;5028491;28;20485;-62
2021/05/17 11:20:50;;;;;;;1.90;0.63;;;20.60;96.70;;;;;;5030545;28;20829;-64
2021/05/17 11:23:20;;;;;;;2.13;0.60;;;18.50;97.10;;;;;;5033148;28;20476;-63
2021/05/17 11:25:50;;;;;;;2.80;0.80;;;17.40;99.90;;;;;;5030099;28;20482;-63
2021/05/17 11:28:17;;;;;;;1.80;1.00;;;16.80;99.90;;;;;;5028335;28;20514;-63
2021/05/17 11:30:45;;;;;;;1.80;0.60;;;15.90;99.90;;;;;;5051717;28;20455;-63
2021/05/17 11:33:16;;;;;;;2.10;0.80;;;14.90;99.90;;;;;;5051107;28;20480;-63
2021/05/17 11:36:00;;;;;;;2.60;0.97;;;14.20;99.90;;;;;;5050142;28;20544;-62
2021/05/17 11:38:28;;;;;;;4.03;0.80;;;13.40;99.90;;;;;;5037872;28;20523;-63
2021/05/17 11:40:55;;;;;;;2.63;0.90;;;12.70;99.90;;;;;;5039685;28;20456;-63
2021/05/17 11:43:23;;;;;;;6.23;1.80;;;12.20;99.90;;;;;;5038694;28;21016;-63
2021/05/17 11:45:50;;;;;;;3.40;1.43;;;11.70;99.90;;;;;;5042360;28;20452;-64
2021/05/17 11:50:53;;;;;;;2.83;1.17;;;11.40;99.90;;;;;;5072540;28;20486;-72
2021/05/17 11:53:19;;;;;;;5.23;1.30;;;12.00;99.90;;;;;;5073064;28;20458;-72
2021/05/17 11:55:48;;;;;;;2.13;0.90;;;13.00;99.90;;;;;;5071833;28;20511;-72
2021/05/17 11:58:22;;;;;;;2.80;1.07;;;13.90;99.90;;;;;;5070352;28;20477;-72
2021/05/17 12:00:49;;;;;;;3.83;1.20;;;14.80;99.90;;;;;;5078787;28;20547;-73
2021/05/17 12:03:16;;;;;;;4.90;1.20;;;15.60;99.90;;;;;;5075803;28;20554;-72
2021/05/17 12:05:43;;;;;;;3.47;0.83;;;16.50;99.90;;;;;;5077757;28;21032;-73
2021/05/17 12:08:10;;;;;;;3.17;1.00;;;17.20;99.90;;;;;;5073944;28;20443;-73
2021/05/17 12:10:37;;;;;;;2.77;1.03;;;17.80;99.90;;;;;;5077771;28;20447;-72
2021/05/17 12:13:13;;;;;;;2.63;0.73;;;17.00;99.90;;;;;;5082024;22;20487;-65
2021/05/17 12:15:40;;;;;;;3.57;0.70;;;16.10;99.90;;;;;;5064554;28;20494;-64
2021/05/17 12:18:10;;;;;;;3.27;0.90;;;15.80;99.90;;;;;;5056578;28;20626;-65
2021/05/17 12:20:37;;;;;;;2.53;0.60;;;15.50;99.90;;;;;;5051028;28;20482;-66
2021/05/17 12:23:03;;;;;;;3.00;0.80;;;14.90;99.90;;;;;;5048652;28;20946;-66
2021/05/17 12:25:30;;;;;;;2.60;1.47;;;14.80;99.90;;;;;;5048966;28;20480;-64
2021/05/17 12:27:56;;;;;;;1.40;0.50;;;15.00;99.90;;;;;;5048441;28;20451;-64
2021/05/17 12:30:25;;;;;;;3.63;0.50;;;15.70;99.90;;;;;;5048567;28;20548;-65
2021/05/17 12:32:53;;;;;;;1.80;0.70;;;16.70;99.90;;;;;;5049174;28;20489;-67
2021/05/17 12:35:26;;;;;;;1.60;0.50;;;18.10;99.90;;;;;;5048622;28;20782;-64
2021/05/17 12:37:55;;;;;;;1.40;0.40;;;18.90;99.90;;;;;;5049010;28;20527;-64
2021/05/17 12:40:28;;;;;;;3.63;0.50;;;19.20;99.90;;;;;;5048202;28;20467;-65
2021/05/17 12:43:06;;;;;;;1.33;0.40;;;19.40;99.90;;;;;;5048774;28;20436;-66
2021/05/17 12:45:35;;;;;;;1.70;0.50;;;19.60;99.90;;;;;;5038457;28;20432;-65
2021/05/17 12:48:08;;;;;;;1.43;0.50;;;18.90;99.90;;;;;;5035117;28;20445;-68
2021/05/17 12:50:34;;;;;;;1.50;0.50;;;18.80;99.90;;;;;;5028812;28;20469;-66
2021/05/17 12:53:07;;;;;;;2.13;0.50;;;19.20;98.70;;;;;;5028748;28;20495;-66
2021/05/17 12:55:39;;;;;;;1.30;0.43;;;18.90;98.00;;;;;;5028347;28;20453;-66
2021/05/17 12:58:07;;;;;;;2.53;0.60;;;18.40;97.90;;;;;;5028424;28;20459;-65
2021/05/17 13:00:45;;;;;;;1.40;0.43;;;17.90;99.90;;;;;;5029125;28;20544;-65
2021/05/17 13:03:14;;;;;;;2.03;0.60;;;18.00;99.60;;;;;;5040898;28;20563;-66
2021/05/17 13:06:02;;;;;;;1.60;0.40;;;17.30;99.10;;;;;;5050943;28;20447;-67
2021/05/17 13:08:55;;;;;;;1.30;0.40;;;17.20;99.90;;;;;;5049855;28;20534;-66
2021/05/17 13:11:30;;;;;;;1.57;0.50;;;17.00;99.90;;;;;;5046051;28;20448;-66
2021/05/17 13:13:59;;;;;;;1.47;0.50;;;16.90;99.90;;;;;;5046012;28;20457;-67
2021/05/17 13:16:32;;;;;;;1.63;0.50;;;17.00;99.90;;;;;;5049345;28;21017;-66